sensor_id;sensor_type;location;lat;lon;timestamp;pressure;altitude;pressure_sealevel;temperature;humidity
23176;BME280;19910;42.652;23.332;2022-10-16T00:00:44;95287.59;;;7.84;91.82
23176;BME280;19910;42.652;23.332;2022-10-16T00:03:11;95290.34;;;7.79;92.08
23176;BME280;19910;42.652;23.332;2022-10-16T00:05:39;95280.81;;;7.68;92.10
23176;BME280;19910;42.652;23.332;2022-10-16T00:08:07;95291.25;;;7.75;91.76
23176;BME280;19910;42.652;23.332;2022-10-16T00:10:34;95294.47;;;7.77;91.00
23176;BME280;19910;42.652;23.332;2022-10-16T00:13:02;95299.19;;;7.66;90.89
23176;BME280;19910;42.652;23.332;2022-10-16T00:15:29;95301.97;;;7.61;91.43
23176;BME280;19910;42.652;23.332;2022-10-16T00:17:56;95299.34;;;7.56;91.91
23176;BME280;19910;42.652;23.332;2022-10-16T00:20:23;95303.13;;;7.55;92.10
23176;BME280;19910;42.652;23.332;2022-10-16T00:22:49;95303.72;;;7.52;91.75
23176;BME280;19910;42.652;23.332;2022-10-16T00:25:16;95292.50;;;7.45;91.30
23176;BME280;19910;42.652;23.332;2022-10-16T00:27:43;95308.09;;;7.48;91.14
23176;BME280;19910;42.652;23.332;2022-10-16T00:30:11;95307.06;;;7.44;91.28
23176;BME280;19910;42.652;23.332;2022-10-16T00:32:38;95313.03;;;7.41;91.29
23176;BME280;19910;42.652;23.332;2022-10-16T00:35:05;95315.44;;;7.42;90.92
23176;BME280;19910;42.652;23.332;2022-10-16T00:37:32;95316.00;;;7.39;90.99
23176;BME280;19910;42.652;23.332;2022-10-16T00:39:59;95319.66;;;7.30;91.30
23176;BME280;19910;42.652;23.332;2022-10-16T00:42:25;95320.19;;;7.32;90.76
23176;BME280;19910;42.652;23.332;2022-10-16T00:44:53;95322.34;;;7.30;90.99
23176;BME280;19910;42.652;23.332;2022-10-16T00:47:26;95325.09;;;7.25;91.69
23176;BME280;19910;42.652;23.332;2022-10-16T00:49:58;95314.78;;;7.32;91.51
23176;BME280;19910;42.652;23.332;2022-10-16T00:52:27;95312.66;;;7.29;91.52
23176;BME280;19910;42.652;23.332;2022-10-16T00:54:55;95311.94;;;7.23;92.11
23176;BME280;19910;42.652;23.332;2022-10-16T00:57:22;95313.19;;;7.31;92.04
23176;BME280;19910;42.652;23.332;2022-10-16T00:59:50;95310.09;;;7.19;91.71
23176;BME280;19910;42.652;23.332;2022-10-16T01:02:17;95311.38;;;7.02;93.06
23176;BME280;19910;42.652;23.332;2022-10-16T01:04:48;95317.22;;;7.09;92.92
23176;BME280;19910;42.652;23.332;2022-10-16T01:07:30;95326.97;;;7.05;92.93
23176;BME280;19910;42.652;23.332;2022-10-16T01:10:08;95325.59;;;7.08;92.52
23176;BME280;19910;42.652;23.332;2022-10-16T01:12:42;95323.38;;;7.34;91.50
23176;BME280;19910;42.652;23.332;2022-10-16T01:15:17;95324.41;;;7.38;92.00
23176;BME280;19910;42.652;23.332;2022-10-16T01:17:50;95326.50;;;7.22;93.57
23176;BME280;19910;42.652;23.332;2022-10-16T01:20:26;95319.28;;;7.18;94.07
23176;BME280;19910;42.652;23.332;2022-10-16T01:23:05;95314.59;;;7.04;94.64
23176;BME280;19910;42.652;23.332;2022-10-16T01:25:53;95317.84;;;7.01;94.82
23176;BME280;19910;42.652;23.332;2022-10-16T01:28:27;95310.56;;;7.02;94.76
23176;BME280;19910;42.652;23.332;2022-10-16T01:30:58;95313.88;;;7.18;94.31
23176;BME280;19910;42.652;23.332;2022-10-16T01:33:28;95309.31;;;7.18;93.62
23176;BME280;19910;42.652;23.332;2022-10-16T01:36:00;95311.03;;;7.09;93.75
23176;BME280;19910;42.652;23.332;2022-10-16T01:38:31;95309.50;;;7.03;94.18
23176;BME280;19910;42.652;23.332;2022-10-16T01:41:04;95307.88;;;7.02;93.85
23176;BME280;19910;42.652;23.332;2022-10-16T01:43:38;95308.53;;;6.94;93.75
23176;BME280;19910;42.652;23.332;2022-10-16T01:46:08;95312.88;;;6.90;93.98
23176;BME280;19910;42.652;23.332;2022-10-16T01:48:36;95305.88;;;6.89;93.86
23176;BME280;19910;42.652;23.332;2022-10-16T01:51:06;95313.69;;;6.90;93.87
23176;BME280;19910;42.652;23.332;2022-10-16T01:53:34;95315.19;;;6.77;93.88
23176;BME280;19910;42.652;23.332;2022-10-16T01:56:02;95316.91;;;6.68;94.39
23176;BME280;19910;42.652;23.332;2022-10-16T01:58:34;95321.19;;;6.69;94.45
23176;BME280;19910;42.652;23.332;2022-10-16T02:01:04;95322.16;;;6.55;94.70
23176;BME280;19910;42.652;23.332;2022-10-16T02:03:34;95318.47;;;6.46;94.55
23176;BME280;19910;42.652;23.332;2022-10-16T02:06:02;95320.19;;;6.36;94.13
23176;BME280;19910;42.652;23.332;2022-10-16T02:08:30;95327.34;;;6.46;94.20
23176;BME280;19910;42.652;23.332;2022-10-16T02:10:58;95331.88;;;6.51;93.10
23176;BME280;19910;42.652;23.332;2022-10-16T02:13:30;95336.19;;;6.52;92.75
23176;BME280;19910;42.652;23.332;2022-10-16T02:15:59;95340.41;;;6.58;92.36
23176;BME280;19910;42.652;23.332;2022-10-16T02:18:26;95338.53;;;6.58;92.43
23176;BME280;19910;42.652;23.332;2022-10-16T02:20:58;95341.97;;;6.64;92.11
23176;BME280;19910;42.652;23.332;2022-10-16T02:23:33;95353.25;;;6.66;92.37
23176;BME280;19910;42.652;23.332;2022-10-16T02:26:04;95341.94;;;6.69;92.27
23176;BME280;19910;42.652;23.332;2022-10-16T02:28:38;95349.66;;;6.75;92.12
23176;BME280;19910;42.652;23.332;2022-10-16T02:31:10;95345.31;;;6.80;91.70
23176;BME280;19910;42.652;23.332;2022-10-16T02:33:38;95350.00;;;6.69;91.34
23176;BME280;19910;42.652;23.332;2022-10-16T02:36:07;95344.16;;;6.62;92.01
23176;BME280;19910;42.652;23.332;2022-10-16T02:38:34;95346.38;;;6.55;92.18
23176;BME280;19910;42.652;23.332;2022-10-16T02:41:03;95340.75;;;6.51;92.20
23176;BME280;19910;42.652;23.332;2022-10-16T02:43:30;95344.81;;;6.49;92.65
23176;BME280;19910;42.652;23.332;2022-10-16T02:45:58;95347.69;;;6.57;92.36
23176;BME280;19910;42.652;23.332;2022-10-16T02:48:26;95354.47;;;6.55;92.42
23176;BME280;19910;42.652;23.332;2022-10-16T02:50:53;95351.78;;;6.55;92.62
23176;BME280;19910;42.652;23.332;2022-10-16T02:53:20;95359.34;;;6.48;92.29
23176;BME280;19910;42.652;23.332;2022-10-16T02:55:46;95363.22;;;6.36;92.75
23176;BME280;19910;42.652;23.332;2022-10-16T02:58:13;95363.22;;;6.36;92.83
23176;BME280;19910;42.652;23.332;2022-10-16T03:00:40;95363.69;;;6.43;92.87
23176;BME280;19910;42.652;23.332;2022-10-16T03:03:07;95372.63;;;6.39;93.08
23176;BME280;19910;42.652;23.332;2022-10-16T03:05:35;95372.63;;;6.39;93.60
23176;BME280;19910;42.652;23.332;2022-10-16T03:08:02;95368.06;;;6.39;94.14
23176;BME280;19910;42.652;23.332;2022-10-16T03:10:28;95367.47;;;6.42;94.22
23176;BME280;19910;42.652;23.332;2022-10-16T03:12:55;95365.88;;;6.41;93.92
23176;BME280;19910;42.652;23.332;2022-10-16T03:15:22;95375.84;;;6.41;93.45
23176;BME280;19910;42.652;23.332;2022-10-16T03:17:48;95375.84;;;6.41;93.79
23176;BME280;19910;42.652;23.332;2022-10-16T03:20:15;95381.22;;;6.41;93.64
23176;BME280;19910;42.652;23.332;2022-10-16T03:22:43;95385.00;;;6.40;93.57
23176;BME280;19910;42.652;23.332;2022-10-16T03:25:10;95371.81;;;6.38;93.60
23176;BME280;19910;42.652;23.332;2022-10-16T03:27:36;95379.28;;;6.47;93.63
23176;BME280;19910;42.652;23.332;2022-10-16T03:30:04;95387.06;;;6.48;93.35
23176;BME280;19910;42.652;23.332;2022-10-16T03:32:30;95384.66;;;6.47;93.48
23176;BME280;19910;42.652;23.332;2022-10-16T03:34:57;95386.28;;;6.48;93.39
23176;BME280;19910;42.652;23.332;2022-10-16T03:37:24;95389.78;;;6.43;93.90
23176;BME280;19910;42.652;23.332;2022-10-16T03:39:52;95387.97;;;6.38;93.71
23176;BME280;19910;42.652;23.332;2022-10-16T03:42:20;95387.97;;;6.38;93.84
23176;BME280;19910;42.652;23.332;2022-10-16T03:44:46;95385.88;;;6.30;93.90
23176;BME280;19910;42.652;23.332;2022-10-16T03:47:13;95387.00;;;6.24;93.85
23176;BME280;19910;42.652;23.332;2022-10-16T03:49:40;95385.16;;;6.20;94.11
23176;BME280;19910;42.652;23.332;2022-10-16T03:52:07;95376.25;;;6.24;93.22
23176;BME280;19910;42.652;23.332;2022-10-16T03:54:33;95379.59;;;6.11;93.58
23176;BME280;19910;42.652;23.332;2022-10-16T03:57:01;95379.06;;;6.09;94.01
23176;BME280;19910;42.652;23.332;2022-10-16T03:59:28;95376.91;;;6.06;94.62
23176;BME280;19910;42.652;23.332;2022-10-16T04:01:55;95376.38;;;6.09;94.91
23176;BME280;19910;42.652;23.332;2022-10-16T04:04:21;95374.75;;;6.08;94.91
23176;BME280;19910;42.652;23.332;2022-10-16T04:06:48;95373.16;;;6.07;95.33
23176;BME280;19910;42.652;23.332;2022-10-16T04:09:15;95377.47;;;6.03;95.66
23176;BME280;19910;42.652;23.332;2022-10-16T04:11:41;95378.56;;;6.02;95.63
23176;BME280;19910;42.652;23.332;2022-10-16T04:14:09;95380.25;;;5.93;95.92
23176;BME280;19910;42.652;23.332;2022-10-16T04:16:36;95377.03;;;5.91;96.30
23176;BME280;19910;42.652;23.332;2022-10-16T04:19:03;95386.16;;;5.90;96.51
23176;BME280;19910;42.652;23.332;2022-10-16T04:21:30;95380.84;;;5.80;97.00
23176;BME280;19910;42.652;23.332;2022-10-16T04:23:56;95385.59;;;5.98;96.57
23176;BME280;19910;42.652;23.332;2022-10-16T04:26:23;95383.66;;;6.03;96.30
23176;BME280;19910;42.652;23.332;2022-10-16T04:28:50;95385.53;;;6.03;95.45
23176;BME280;19910;42.652;23.332;2022-10-16T04:31:18;95380.75;;;6.00;94.93
23176;BME280;19910;42.652;23.332;2022-10-16T04:33:44;95396.06;;;5.99;95.65
23176;BME280;19910;42.652;23.332;2022-10-16T04:36:12;95394.66;;;6.12;95.44
23176;BME280;19910;42.652;23.332;2022-10-16T04:38:39;95391.09;;;6.17;95.28
23176;BME280;19910;42.652;23.332;2022-10-16T04:41:06;95398.59;;;6.20;95.03
23176;BME280;19910;42.652;23.332;2022-10-16T04:43:33;95402.66;;;6.17;94.70
23176;BME280;19910;42.652;23.332;2022-10-16T04:46:00;95392.41;;;6.24;94.62
23176;BME280;19910;42.652;23.332;2022-10-16T04:48:28;95401.78;;;6.27;94.16
23176;BME280;19910;42.652;23.332;2022-10-16T04:50:55;95402.13;;;6.15;93.94
23176;BME280;19910;42.652;23.332;2022-10-16T04:53:21;95415.53;;;6.25;94.17
23176;BME280;19910;42.652;23.332;2022-10-16T04:55:48;95419.53;;;6.28;93.97
23176;BME280;19910;42.652;23.332;2022-10-16T04:58:15;95416.50;;;6.39;93.99
23176;BME280;19910;42.652;23.332;2022-10-16T05:00:42;95414.63;;;6.69;94.29
23176;BME280;19910;42.652;23.332;2022-10-16T05:03:09;95411.81;;;7.74;96.79
23176;BME280;19910;42.652;23.332;2022-10-16T05:05:42;95408.25;;;8.68;93.32
23176;BME280;19910;42.652;23.332;2022-10-16T05:08:10;95412.06;;;9.68;86.58
23176;BME280;19910;42.652;23.332;2022-10-16T05:10:40;95404.59;;;10.59;77.22
23176;BME280;19910;42.652;23.332;2022-10-16T05:13:08;95392.94;;;11.43;73.89
23176;BME280;19910;42.652;23.332;2022-10-16T05:15:34;95395.22;;;12.15;71.44
23176;BME280;19910;42.652;23.332;2022-10-16T05:18:01;95395.19;;;12.84;66.97
23176;BME280;19910;42.652;23.332;2022-10-16T05:20:28;95402.22;;;13.40;65.99
23176;BME280;19910;42.652;23.332;2022-10-16T05:22:56;95405.06;;;13.90;64.96
23176;BME280;19910;42.652;23.332;2022-10-16T05:25:23;95408.06;;;14.47;63.78
23176;BME280;19910;42.652;23.332;2022-10-16T05:27:50;95405.59;;;14.75;62.21
23176;BME280;19910;42.652;23.332;2022-10-16T05:30:17;95404.25;;;15.14;60.39
23176;BME280;19910;42.652;23.332;2022-10-16T05:32:46;95399.97;;;15.05;58.89
23176;BME280;19910;42.652;23.332;2022-10-16T05:35:14;95408.88;;;14.18;61.82
23176;BME280;19910;42.652;23.332;2022-10-16T05:37:41;95404.22;;;14.81;62.78
23176;BME280;19910;42.652;23.332;2022-10-16T05:40:10;95402.53;;;15.22;60.69
23176;BME280;19910;42.652;23.332;2022-10-16T05:42:37;95402.91;;;14.87;58.10
23176;BME280;19910;42.652;23.332;2022-10-16T05:45:05;95405.50;;;14.84;57.85
23176;BME280;19910;42.652;23.332;2022-10-16T05:47:32;95403.59;;;14.43;58.70
23176;BME280;19910;42.652;23.332;2022-10-16T05:49:59;95418.38;;;14.12;59.66
23176;BME280;19910;42.652;23.332;2022-10-16T05:52:26;95418.69;;;13.90;60.37
23176;BME280;19910;42.652;23.332;2022-10-16T05:54:53;95420.25;;;14.20;59.88
23176;BME280;19910;42.652;23.332;2022-10-16T05:57:21;95423.09;;;14.03;59.29
23176;BME280;19910;42.652;23.332;2022-10-16T05:59:48;95426.88;;;13.43;60.61
23176;BME280;19910;42.652;23.332;2022-10-16T06:02:14;95435.84;;;14.41;59.34
23176;BME280;19910;42.652;23.332;2022-10-16T06:04:41;95438.09;;;15.01;57.50
23176;BME280;19910;42.652;23.332;2022-10-16T06:07:08;95430.63;;;15.55;56.02
23176;BME280;19910;42.652;23.332;2022-10-16T06:09:35;95433.00;;;16.30;55.39
23176;BME280;19910;42.652;23.332;2022-10-16T06:12:02;95437.56;;;16.50;53.28
23176;BME280;19910;42.652;23.332;2022-10-16T06:14:30;95439.13;;;17.03;53.41
23176;BME280;19910;42.652;23.332;2022-10-16T06:16:56;95432.78;;;16.87;51.70
23176;BME280;19910;42.652;23.332;2022-10-16T06:19:23;95439.16;;;16.51;52.92
23176;BME280;19910;42.652;23.332;2022-10-16T06:21:50;95447.72;;;16.38;52.70
23176;BME280;19910;42.652;23.332;2022-10-16T06:24:16;95442.22;;;16.50;53.77
23176;BME280;19910;42.652;23.332;2022-10-16T06:26:43;95451.00;;;16.31;54.36
23176;BME280;19910;42.652;23.332;2022-10-16T06:29:10;95454.31;;;16.37;53.26
23176;BME280;19910;42.652;23.332;2022-10-16T06:31:38;95449.66;;;16.00;54.13
23176;BME280;19910;42.652;23.332;2022-10-16T06:34:05;95452.59;;;14.93;57.29
23176;BME280;19910;42.652;23.332;2022-10-16T06:36:35;95458.94;;;15.18;56.99
23176;BME280;19910;42.652;23.332;2022-10-16T06:39:02;95464.44;;;14.55;58.78
23176;BME280;19910;42.652;23.332;2022-10-16T06:41:29;95462.47;;;14.35;59.42
23176;BME280;19910;42.652;23.332;2022-10-16T06:43:55;95474.38;;;14.60;59.57
23176;BME280;19910;42.652;23.332;2022-10-16T06:46:24;95464.66;;;14.71;59.94
23176;BME280;19910;42.652;23.332;2022-10-16T06:48:53;95475.25;;;14.14;61.60
23176;BME280;19910;42.652;23.332;2022-10-16T06:51:21;95479.09;;;13.37;64.30
23176;BME280;19910;42.652;23.332;2022-10-16T06:53:49;95485.53;;;13.15;64.37
23176;BME280;19910;42.652;23.332;2022-10-16T06:56:18;95491.47;;;12.65;65.84
23176;BME280;19910;42.652;23.332;2022-10-16T06:58:45;95492.44;;;12.69;66.53
23176;BME280;19910;42.652;23.332;2022-10-16T07:01:13;95494.66;;;12.50;67.24
23176;BME280;19910;42.652;23.332;2022-10-16T07:03:42;95502.75;;;12.24;67.95
23176;BME280;19910;42.652;23.332;2022-10-16T07:06:13;95497.75;;;12.09;68.88
23176;BME280;19910;42.652;23.332;2022-10-16T07:08:41;95501.28;;;12.09;67.91
23176;BME280;19910;42.652;23.332;2022-10-16T07:11:10;95503.31;;;11.64;69.86
23176;BME280;19910;42.652;23.332;2022-10-16T07:13:41;95500.78;;;11.37;70.11
23176;BME280;19910;42.652;23.332;2022-10-16T07:16:10;95509.03;;;11.63;69.66
23176;BME280;19910;42.652;23.332;2022-10-16T07:18:37;95511.38;;;11.78;69.23
23176;BME280;19910;42.652;23.332;2022-10-16T07:21:06;95508.97;;;11.77;69.50
23176;BME280;19910;42.652;23.332;2022-10-16T07:23:34;95504.44;;;11.94;69.31
23176;BME280;19910;42.652;23.332;2022-10-16T07:26:01;95507.81;;;12.08;69.59
23176;BME280;19910;42.652;23.332;2022-10-16T07:28:28;95513.28;;;12.17;70.26
23176;BME280;19910;42.652;23.332;2022-10-16T07:31:00;95513.16;;;12.31;68.55
23176;BME280;19910;42.652;23.332;2022-10-16T07:33:27;95514.47;;;12.42;67.81
23176;BME280;19910;42.652;23.332;2022-10-16T07:35:54;95510.63;;;12.43;67.73
23176;BME280;19910;42.652;23.332;2022-10-16T07:38:21;95509.69;;;12.73;67.27
23176;BME280;19910;42.652;23.332;2022-10-16T07:40:55;95507.47;;;12.93;66.97
23176;BME280;19910;42.652;23.332;2022-10-16T07:43:22;95507.31;;;12.80;68.15
23176;BME280;19910;42.652;23.332;2022-10-16T07:45:50;95512.91;;;12.93;66.75
23176;BME280;19910;42.652;23.332;2022-10-16T07:48:17;95513.69;;;12.93;66.77
23176;BME280;19910;42.652;23.332;2022-10-16T07:50:44;95505.56;;;12.85;67.74
23176;BME280;19910;42.652;23.332;2022-10-16T07:53:12;95508.75;;;12.78;68.44
23176;BME280;19910;42.652;23.332;2022-10-16T07:55:39;95516.75;;;12.92;68.44
23176;BME280;19910;42.652;23.332;2022-10-16T07:58:07;95511.28;;;12.92;67.40
23176;BME280;19910;42.652;23.332;2022-10-16T08:00:35;95508.56;;;12.92;68.00
23176;BME280;19910;42.652;23.332;2022-10-16T08:03:02;95515.13;;;12.91;67.68
23176;BME280;19910;42.652;23.332;2022-10-16T08:05:31;95514.81;;;12.66;67.83
23176;BME280;19910;42.652;23.332;2022-10-16T08:07:58;95517.38;;;12.89;67.02
23176;BME280;19910;42.652;23.332;2022-10-16T08:10:27;95519.94;;;13.02;67.84
23176;BME280;19910;42.652;23.332;2022-10-16T08:12:54;95518.97;;;13.07;66.90
23176;BME280;19910;42.652;23.332;2022-10-16T08:15:22;95509.38;;;13.18;67.41
23176;BME280;19910;42.652;23.332;2022-10-16T08:17:56;95504.53;;;13.49;66.87
23176;BME280;19910;42.652;23.332;2022-10-16T08:20:23;95505.78;;;13.61;65.16
23176;BME280;19910;42.652;23.332;2022-10-16T08:22:50;95510.22;;;13.74;65.52
23176;BME280;19910;42.652;23.332;2022-10-16T08:25:16;95488.69;;;13.43;64.62
23176;BME280;19910;42.652;23.332;2022-10-16T08:27:43;95505.13;;;13.64;63.80
23176;BME280;19910;42.652;23.332;2022-10-16T08:30:10;95508.63;;;13.73;63.51
23176;BME280;19910;42.652;23.332;2022-10-16T08:32:39;95500.56;;;13.85;63.17
23176;BME280;19910;42.652;23.332;2022-10-16T08:35:07;95497.56;;;13.78;62.70
23176;BME280;19910;42.652;23.332;2022-10-16T08:37:34;95501.44;;;14.06;62.81
23176;BME280;19910;42.652;23.332;2022-10-16T08:40:01;95502.63;;;13.88;62.99
23176;BME280;19910;42.652;23.332;2022-10-16T08:42:38;95503.38;;;13.97;63.30
23176;BME280;19910;42.652;23.332;2022-10-16T08:45:20;95504.50;;;14.05;63.45
23176;BME280;19910;42.652;23.332;2022-10-16T08:48:00;95507.00;;;14.18;60.82
23176;BME280;19910;42.652;23.332;2022-10-16T08:50:30;95508.38;;;14.24;60.73
23176;BME280;19910;42.652;23.332;2022-10-16T08:52:58;95509.59;;;14.36;60.45
23176;BME280;19910;42.652;23.332;2022-10-16T08:55:31;95515.72;;;14.03;58.20
23176;BME280;19910;42.652;23.332;2022-10-16T08:58:00;95511.88;;;14.34;57.90
23176;BME280;19910;42.652;23.332;2022-10-16T09:00:27;95507.66;;;14.45;58.29
23176;BME280;19910;42.652;23.332;2022-10-16T09:03:03;95516.13;;;14.52;57.27
23176;BME280;19910;42.652;23.332;2022-10-16T09:05:48;95510.19;;;14.50;57.86
23176;BME280;19910;42.652;23.332;2022-10-16T09:08:24;95513.50;;;14.85;56.77
23176;BME280;19910;42.652;23.332;2022-10-16T09:10:56;95509.41;;;14.91;55.62
23176;BME280;19910;42.652;23.332;2022-10-16T09:13:28;95511.69;;;14.68;53.82
23176;BME280;19910;42.652;23.332;2022-10-16T09:16:15;95501.72;;;14.72;54.16
23176;BME280;19910;42.652;23.332;2022-10-16T09:18:52;95505.81;;;14.78;53.96
23176;BME280;19910;42.652;23.332;2022-10-16T09:21:23;95499.56;;;14.57;54.79
23176;BME280;19910;42.652;23.332;2022-10-16T09:23:51;95495.19;;;14.85;53.57
23176;BME280;19910;42.652;23.332;2022-10-16T09:26:18;95505.00;;;15.19;53.65
23176;BME280;19910;42.652;23.332;2022-10-16T09:28:47;95502.53;;;15.59;51.90
23176;BME280;19910;42.652;23.332;2022-10-16T09:31:17;95500.19;;;15.58;50.73
23176;BME280;19910;42.652;23.332;2022-10-16T09:33:48;95512.44;;;15.31;50.94
23176;BME280;19910;42.652;23.332;2022-10-16T09:36:16;95496.34;;;15.50;51.04
23176;BME280;19910;42.652;23.332;2022-10-16T09:38:44;95501.78;;;15.38;51.84
23176;BME280;19910;42.652;23.332;2022-10-16T09:41:17;95508.16;;;15.42;52.20
23176;BME280;19910;42.652;23.332;2022-10-16T09:43:48;95493.59;;;15.71;51.27
23176;BME280;19910;42.652;23.332;2022-10-16T09:46:25;95494.63;;;15.79;51.19
23176;BME280;19910;42.652;23.332;2022-10-16T09:48:55;95499.06;;;15.71;51.02
23176;BME280;19910;42.652;23.332;2022-10-16T09:51:25;95495.66;;;15.41;51.38
23176;BME280;19910;42.652;23.332;2022-10-16T09:53:56;95485.44;;;15.17;51.39
23176;BME280;19910;42.652;23.332;2022-10-16T09:56:25;95493.47;;;15.35;50.92
23176;BME280;19910;42.652;23.332;2022-10-16T09:58:54;95480.75;;;15.51;50.97
23176;BME280;19910;42.652;23.332;2022-10-16T10:01:22;95481.50;;;15.60;50.51
23176;BME280;19910;42.652;23.332;2022-10-16T10:03:50;95482.91;;;15.78;49.64
23176;BME280;19910;42.652;23.332;2022-10-16T10:06:27;95470.38;;;16.14;49.22
23176;BME280;19910;42.652;23.332;2022-10-16T10:08:56;95478.50;;;16.10;48.44
23176;BME280;19910;42.652;23.332;2022-10-16T10:11:44;95474.84;;;16.18;48.80
23176;BME280;19910;42.652;23.332;2022-10-16T10:14:23;95469.81;;;16.32;48.57
23176;BME280;19910;42.652;23.332;2022-10-16T10:16:51;95472.78;;;16.03;50.52
23176;BME280;19910;42.652;23.332;2022-10-16T10:19:19;95465.63;;;15.98;49.64
23176;BME280;19910;42.652;23.332;2022-10-16T10:21:49;95469.81;;;16.32;48.96
23176;BME280;19910;42.652;23.332;2022-10-16T10:24:18;95473.00;;;15.86;47.95
23176;BME280;19910;42.652;23.332;2022-10-16T10:26:53;95462.31;;;16.17;48.19
23176;BME280;19910;42.652;23.332;2022-10-16T10:29:29;95471.19;;;16.02;48.51
23176;BME280;19910;42.652;23.332;2022-10-16T10:32:05;95456.84;;;16.17;48.74
23176;BME280;19910;42.652;23.332;2022-10-16T10:34:48;95453.50;;;16.48;47.98
23176;BME280;19910;42.652;23.332;2022-10-16T10:37:33;95458.03;;;16.81;47.73
23176;BME280;19910;42.652;23.332;2022-10-16T10:40:11;95442.16;;;16.86;46.60
23176;BME280;19910;42.652;23.332;2022-10-16T10:42:49;95446.56;;;16.39;47.03
23176;BME280;19910;42.652;23.332;2022-10-16T10:45:23;95436.44;;;16.39;47.57
23176;BME280;19910;42.652;23.332;2022-10-16T10:48:06;95444.97;;;16.50;46.17
23176;BME280;19910;42.652;23.332;2022-10-16T10:50:41;95445.88;;;16.42;45.50
23176;BME280;19910;42.652;23.332;2022-10-16T10:53:19;95438.88;;;16.56;44.83
23176;BME280;19910;42.652;23.332;2022-10-16T10:55:52;95441.81;;;16.88;44.94
23176;BME280;19910;42.652;23.332;2022-10-16T10:58:34;95432.84;;;16.75;45.11
23176;BME280;19910;42.652;23.332;2022-10-16T11:01:09;95434.81;;;16.50;44.75
23176;BME280;19910;42.652;23.332;2022-10-16T11:03:51;95425.56;;;16.67;45.59
23176;BME280;19910;42.652;23.332;2022-10-16T11:06:26;95429.56;;;16.97;45.34
23176;BME280;19910;42.652;23.332;2022-10-16T11:09:11;95427.56;;;17.10;44.86
23176;BME280;19910;42.652;23.332;2022-10-16T11:11:58;95413.59;;;16.99;42.60
23176;BME280;19910;42.652;23.332;2022-10-16T11:14:34;95419.06;;;16.99;41.13
23176;BME280;19910;42.652;23.332;2022-10-16T11:17:10;95415.63;;;17.02;41.75
23176;BME280;19910;42.652;23.332;2022-10-16T11:19:43;95407.03;;;17.32;42.20
23176;BME280;19910;42.652;23.332;2022-10-16T11:22:16;95426.00;;;17.25;40.78
23176;BME280;19910;42.652;23.332;2022-10-16T11:24:48;95412.66;;;17.08;40.53
23176;BME280;19910;42.652;23.332;2022-10-16T11:27:23;95414.66;;;17.11;40.16
23176;BME280;19910;42.652;23.332;2022-10-16T11:29:56;95411.53;;;16.96;39.46
23176;BME280;19910;42.652;23.332;2022-10-16T11:32:29;95407.25;;;17.11;39.22
23176;BME280;19910;42.652;23.332;2022-10-16T11:35:02;95407.91;;;17.36;38.92
23176;BME280;19910;42.652;23.332;2022-10-16T11:37:33;95402.63;;;17.43;39.91
23176;BME280;19910;42.652;23.332;2022-10-16T11:40:16;95414.13;;;17.33;40.88
23176;BME280;19910;42.652;23.332;2022-10-16T11:42:50;95410.03;;;17.27;41.75
23176;BME280;19910;42.652;23.332;2022-10-16T11:45:26;95395.03;;;17.52;41.58
23176;BME280;19910;42.652;23.332;2022-10-16T11:48:00;95401.22;;;17.49;40.08
23176;BME280;19910;42.652;23.332;2022-10-16T11:50:33;95409.81;;;17.48;40.43
23176;BME280;19910;42.652;23.332;2022-10-16T11:53:04;95409.00;;;17.47;41.67
23176;BME280;19910;42.652;23.332;2022-10-16T11:55:39;95413.03;;;17.37;40.94
23176;BME280;19910;42.652;23.332;2022-10-16T11:58:12;95408.72;;;17.36;41.43
23176;BME280;19910;42.652;23.332;2022-10-16T12:00:46;95417.19;;;17.31;40.94
23176;BME280;19910;42.652;23.332;2022-10-16T12:03:22;95409.69;;;17.44;42.57
23176;BME280;19910;42.652;23.332;2022-10-16T12:06:16;95406.28;;;17.63;41.39
23176;BME280;19910;42.652;23.332;2022-10-16T12:08:49;95414.16;;;17.64;39.82
23176;BME280;19910;42.652;23.332;2022-10-16T12:11:32;95395.91;;;17.56;41.96
23176;BME280;19910;42.652;23.332;2022-10-16T12:14:21;95405.22;;;17.67;43.06
23176;BME280;19910;42.652;23.332;2022-10-16T12:16:54;95402.75;;;17.78;43.67
23176;BME280;19910;42.652;23.332;2022-10-16T12:19:24;95403.72;;;17.86;40.94
23176;BME280;19910;42.652;23.332;2022-10-16T12:21:55;95405.47;;;17.94;41.56
23176;BME280;19910;42.652;23.332;2022-10-16T12:24:31;95408.84;;;18.03;39.71
23176;BME280;19910;42.652;23.332;2022-10-16T12:27:00;95410.09;;;17.90;41.09
23176;BME280;19910;42.652;23.332;2022-10-16T12:29:36;95412.50;;;17.75;38.01
23176;BME280;19910;42.652;23.332;2022-10-16T12:32:05;95409.31;;;17.73;37.74
23176;BME280;19910;42.652;23.332;2022-10-16T12:34:47;95405.56;;;17.97;38.83
23176;BME280;19910;42.652;23.332;2022-10-16T12:37:19;95403.88;;;17.93;38.70
23176;BME280;19910;42.652;23.332;2022-10-16T12:39:48;95403.38;;;18.03;40.14
23176;BME280;19910;42.652;23.332;2022-10-16T12:42:23;95407.72;;;18.04;40.90
23176;BME280;19910;42.652;23.332;2022-10-16T12:44:51;95405.13;;;18.11;41.88
23176;BME280;19910;42.652;23.332;2022-10-16T12:47:21;95402.91;;;18.17;42.00
23176;BME280;19910;42.652;23.332;2022-10-16T12:49:49;95405.25;;;18.18;41.99
23176;BME280;19910;42.652;23.332;2022-10-16T12:52:25;95413.78;;;18.13;41.96
23176;BME280;19910;42.652;23.332;2022-10-16T12:54:56;95406.53;;;18.05;41.12
23176;BME280;19910;42.652;23.332;2022-10-16T12:57:34;95412.47;;;17.91;42.35
23176;BME280;19910;42.652;23.332;2022-10-16T13:00:13;95422.47;;;17.84;42.83
23176;BME280;19910;42.652;23.332;2022-10-16T13:03:22;95416.03;;;17.76;42.06
23176;BME280;19910;42.652;23.332;2022-10-16T13:06:03;95423.81;;;17.74;42.48
23176;BME280;19910;42.652;23.332;2022-10-16T13:08:42;95422.03;;;17.82;43.06
23176;BME280;19910;42.652;23.332;2022-10-16T13:11:17;95418.22;;;18.02;42.22